sensor_id;sensor_type;location;lat;lon;timestamp;pressure;altitude;pressure_sealevel;temperature;humidity
60307;BME280;46155;52.364;6.580;2023-01-26T04:01:12;102236.25;;;-0.56;100.00
60307;BME280;46155;52.364;6.580;2023-01-26T04:03:45;102238.34;;;-0.46;100.00
60307;BME280;46155;52.364;6.580;2023-01-26T04:06:28;102240.59;;;-0.42;100.00
60307;BME280;46155;52.364;6.580;2023-01-26T04:09:12;102237.84;;;-0.36;100.00
60307;BME280;46155;52.364;6.580;2023-01-26T04:11:39;102236.94;;;-0.37;100.00
60307;BME280;46155;52.364;6.580;2023-01-26T04:14:04;102238.59;;;-0.37;100.00
60307;BME280;46155;52.364;6.580;2023-01-26T04:16:48;102235.81;;;-0.39;100.00
60307;BME280;46155;52.364;6.580;2023-01-26T04:19:32;102235.09;;;-0.38;100.00
60307;BME280;46155;52.364;6.580;2023-01-26T04:22:16;102236.59;;;-0.32;100.00
60307;BME280;46155;52.364;6.580;2023-01-26T04:24:41;102237.72;;;-0.30;100.00
60307;BME280;46155;52.364;6.580;2023-01-26T04:27:07;102235.50;;;-0.27;100.00
60307;BME280;46155;52.364;6.580;2023-01-26T04:29:32;102239.22;;;-0.25;100.00
60307;BME280;46155;52.364;6.580;2023-01-26T04:31:58;102236.66;;;-0.25;100.00
60307;BME280;46155;52.364;6.580;2023-01-26T04:34:23;102238.13;;;-0.20;100.00
60307;BME280;46155;52.364;6.580;2023-01-26T04:36:48;102215.41;;;-0.30;100.00
60307;BME280;46155;52.364;6.580;2023-01-26T04:39:14;102240.00;;;-0.19;100.00
60307;BME280;46155;52.364;6.580;2023-01-26T04:41:39;102227.81;;;-0.20;100.00
60307;BME280;46155;52.364;6.580;2023-01-26T04:44:04;102223.75;;;-0.25;100.00
60307;BME280;46155;52.364;6.580;2023-01-26T04:46:29;102223.00;;;-0.24;100.00
60307;BME280;46155;52.364;6.580;2023-01-26T04:48:55;102219.50;;;-0.25;100.00
60307;BME280;46155;52.364;6.580;2023-01-26T04:51:21;102216.72;;;-0.26;100.00
60307;BME280;46155;52.364;6.580;2023-01-26T04:53:47;102213.81;;;-0.22;100.00
60307;BME280;46155;52.364;6.580;2023-01-26T04:56:26;102215.66;;;-0.21;100.00
60307;BME280;46155;52.364;6.580;2023-01-26T04:58:53;102211.03;;;-0.24;100.00
60307;BME280;46155;52.364;6.580;2023-01-26T05:01:19;102211.94;;;-0.23;100.00
60307;BME280;46155;52.364;6.580;2023-01-26T05:03:45;102213.47;;;-0.18;100.00
60307;BME280;46155;52.364;6.580;2023-01-26T05:06:10;102205.91;;;-0.16;100.00
60307;BME280;46155;52.364;6.580;2023-01-26T05:08:36;102205.56;;;-0.12;100.00
60307;BME280;46155;52.364;6.580;2023-01-26T05:11:01;102207.63;;;-0.10;100.00
60307;BME280;46155;52.364;6.580;2023-01-26T05:13:27;102212.03;;;-0.09;100.00
60307;BME280;46155;52.364;6.580;2023-01-26T05:15:52;102211.50;;;-0.06;100.00
60307;BME280;46155;52.364;6.580;2023-01-26T05:18:18;102211.69;;;-0.05;100.00
60307;BME280;46155;52.364;6.580;2023-01-26T05:20:43;102201.34;;;-0.05;100.00
60307;BME280;46155;52.364;6.580;2023-01-26T05:23:08;102200.44;;;-0.05;100.00
60307;BME280;46155;52.364;6.580;2023-01-26T05:25:33;102198.78;;;-0.05;100.00
60307;BME280;46155;52.364;6.580;2023-01-26T05:27:59;102200.44;;;-0.05;100.00
60307;BME280;46155;52.364;6.580;2023-01-26T05:30:24;102201.16;;;-0.06;100.00
60307;BME280;46155;52.364;6.580;2023-01-26T05:32:49;102199.16;;;-0.02;100.00
60307;BME280;46155;52.364;6.580;2023-01-26T05:35:15;102198.03;;;-0.04;100.00
60307;BME280;46155;52.364;6.580;2023-01-26T05:37:41;102204.47;;;-0.07;100.00
60307;BME280;46155;52.364;6.580;2023-01-26T05:40:10;102212.44;;;-0.06;100.00
60307;BME280;46155;52.364;6.580;2023-01-26T05:42:36;102207.28;;;-0.06;100.00
60307;BME280;46155;52.364;6.580;2023-01-26T05:45:01;102204.13;;;-0.03;100.00
60307;BME280;46155;52.364;6.580;2023-01-26T05:47:27;102205.06;;;-0.03;100.00
60307;BME280;46155;52.364;6.580;2023-01-26T05:49:52;102209.47;;;-0.02;100.00
60307;BME280;46155;52.364;6.580;2023-01-26T05:52:19;102205.25;;;-0.01;100.00
60307;BME280;46155;52.364;6.580;2023-01-26T05:54:45;102201.53;;;-0.03;100.00
60307;BME280;46155;52.364;6.580;2023-01-26T05:57:12;102214.66;;;0.06;100.00
60307;BME280;46155;52.364;6.580;2023-01-26T05:59:37;102208.06;;;0.08;100.00
60307;BME280;46155;52.364;6.580;2023-01-26T06:02:03;102212.50;;;0.09;100.00
60307;BME280;46155;52.364;6.580;2023-01-26T06:04:29;102208.06;;;0.08;100.00
60307;BME280;46155;52.364;6.580;2023-01-26T06:06:56;102213.59;;;0.11;100.00
60307;BME280;46155;52.364;6.580;2023-01-26T06:09:22;102215.50;;;0.19;100.00
60307;BME280;46155;52.364;6.580;2023-01-26T06:11:48;102210.31;;;0.19;100.00
60307;BME280;46155;52.364;6.580;2023-01-26T06:14:13;102187.75;;;0.04;100.00
60307;BME280;46155;52.364;6.580;2023-01-26T06:16:39;102213.59;;;0.11;100.00
60307;BME280;46155;52.364;6.580;2023-01-26T06:19:04;102216.19;;;0.11;100.00
60307;BME280;46155;52.364;6.580;2023-01-26T06:21:31;102208.44;;;0.11;100.00
60307;BME280;46155;52.364;6.580;2023-01-26T06:23:56;102220.75;;;-0.01;100.00
60307;BME280;46155;52.364;6.580;2023-01-26T06:26:22;102215.06;;;0.02;100.00
60307;BME280;46155;52.364;6.580;2023-01-26T06:28:49;102213.19;;;0.01;100.00
60307;BME280;46155;52.364;6.580;2023-01-26T06:31:15;102223.31;;;-0.01;100.00
60307;BME280;46155;52.364;6.580;2023-01-26T06:33:40;102217.22;;;-0.02;100.00
60307;BME280;46155;52.364;6.580;2023-01-26T06:36:08;102219.28;;;0.01;100.00
60307;BME280;46155;52.364;6.580;2023-01-26T06:38:35;102222.41;;;0.06;100.00
60307;BME280;46155;52.364;6.580;2023-01-26T06:41:01;102229.97;;;0.04;100.00
60307;BME280;46155;52.364;6.580;2023-01-26T06:43:28;102223.53;;;0.01;100.00
60307;BME280;46155;52.364;6.580;2023-01-26T06:45:55;102237.22;;;0.14;100.00
60307;BME280;46155;52.364;6.580;2023-01-26T06:48:21;102226.41;;;0.31;100.00
60307;BME280;46155;52.364;6.580;2023-01-26T06:50:46;102222.94;;;0.38;100.00
60307;BME280;46155;52.364;6.580;2023-01-26T06:53:28;102242.69;;;0.37;100.00
60307;BME280;46155;52.364;6.580;2023-01-26T06:55:53;102245.09;;;0.36;100.00
60307;BME280;46155;52.364;6.580;2023-01-26T06:58:19;102246.91;;;0.37;100.00
60307;BME280;46155;52.364;6.580;2023-01-26T07:00:44;102240.47;;;0.33;100.00
60307;BME280;46155;52.364;6.580;2023-01-26T07:03:09;102230.09;;;0.26;100.00
60307;BME280;46155;52.364;6.580;2023-01-26T07:05:35;102244.31;;;0.29;100.00
60307;BME280;46155;52.364;6.580;2023-01-26T07:08:00;102237.09;;;0.27;100.00
60307;BME280;46155;52.364;6.580;2023-01-26T07:10:28;102234.28;;;0.18;100.00
60307;BME280;46155;52.364;6.580;2023-01-26T07:12:53;102224.34;;;0.21;100.00
60307;BME280;46155;52.364;6.580;2023-01-26T07:15:19;102234.28;;;0.18;100.00
60307;BME280;46155;52.364;6.580;2023-01-26T07:17:44;102235.00;;;0.17;100.00
60307;BME280;46155;52.364;6.580;2023-01-26T07:20:10;102235.78;;;0.16;100.00
60307;BME280;46155;52.364;6.580;2023-01-26T07:22:35;102239.66;;;0.20;100.00
60307;BME280;46155;52.364;6.580;2023-01-26T07:25:00;102241.69;;;0.22;100.00
60307;BME280;46155;52.364;6.580;2023-01-26T07:27:26;102239.84;;;0.21;100.00
60307;BME280;46155;52.364;6.580;2023-01-26T07:29:51;102236.53;;;0.22;100.00
60307;BME280;46155;52.364;6.580;2023-01-26T07:32:16;102244.81;;;0.20;100.00
60307;BME280;46155;52.364;6.580;2023-01-26T07:34:41;102251.47;;;0.17;100.00
60307;BME280;46155;52.364;6.580;2023-01-26T07:37:07;102254.94;;;0.18;100.00
60307;BME280;46155;52.364;6.580;2023-01-26T07:39:32;102247.94;;;0.17;100.00
60307;BME280;46155;52.364;6.580;2023-01-26T07:41:58;102250.72;;;0.19;100.00
60307;BME280;46155;52.364;6.580;2023-01-26T07:44:23;102256.47;;;0.23;100.00
60307;BME280;46155;52.364;6.580;2023-01-26T07:46:49;102261.25;;;0.20;100.00
60307;BME280;46155;52.364;6.580;2023-01-26T07:49:14;102273.41;;;0.21;100.00
60307;BME280;46155;52.364;6.580;2023-01-26T07:51:39;102272.88;;;0.24;100.00
60307;BME280;46155;52.364;6.580;2023-01-26T07:54:05;102274.94;;;0.26;100.00
60307;BME280;46155;52.364;6.580;2023-01-26T07:56:31;102277.16;;;0.30;100.00
60307;BME280;46155;52.364;6.580;2023-01-26T07:58:56;102272.75;;;0.37;100.00
60307;BME280;46155;52.364;6.580;2023-01-26T08:01:22;102262.41;;;0.37;100.00
60307;BME280;46155;52.364;6.580;2023-01-26T08:03:51;102265.34;;;0.32;100.00
60307;BME280;46155;52.364;6.580;2023-01-26T08:06:18;102271.31;;;0.39;100.00
60307;BME280;46155;52.364;6.580;2023-01-26T08:08:44;102279.22;;;0.33;100.00
60307;BME280;46155;52.364;6.580;2023-01-26T08:11:10;102278.59;;;0.28;100.00
60307;BME280;46155;52.364;6.580;2023-01-26T08:13:36;102276.03;;;0.28;100.00
60307;BME280;46155;52.364;6.580;2023-01-26T08:16:04;102278.59;;;0.28;100.00
60307;BME280;46155;52.364;6.580;2023-01-26T08:18:30;102272.00;;;0.30;100.00
60307;BME280;46155;52.364;6.580;2023-01-26T08:20:56;102270.50;;;0.32;100.00
60307;BME280;46155;52.364;6.580;2023-01-26T08:23:21;102271.28;;;0.31;100.00
60307;BME280;46155;52.364;6.580;2023-01-26T08:25:46;102271.31;;;0.39;100.00
60307;BME280;46155;52.364;6.580;2023-01-26T08:28:12;102270.75;;;0.41;100.00
60307;BME280;46155;52.364;6.580;2023-01-26T08:30:38;102271.84;;;0.36;100.00
60307;BME280;46155;52.364;6.580;2023-01-26T08:33:04;102268.34;;;0.36;100.00
60307;BME280;46155;52.364;6.580;2023-01-26T08:35:30;102261.13;;;0.33;100.00
60307;BME280;46155;52.364;6.580;2023-01-26T08:37:56;102264.28;;;0.38;100.00
60307;BME280;46155;52.364;6.580;2023-01-26T08:40:21;102268.53;;;0.37;100.00
60307;BME280;46155;52.364;6.580;2023-01-26T08:42:48;102270.16;;;0.37;100.00
60307;BME280;46155;52.364;6.580;2023-01-26T08:45:14;102271.69;;;0.42;100.00
60307;BME280;46155;52.364;6.580;2023-01-26T08:47:39;102278.09;;;0.38;100.00
60307;BME280;46155;52.364;6.580;2023-01-26T08:50:05;102276.13;;;0.43;100.00
60307;BME280;46155;52.364;6.580;2023-01-26T08:52:30;102269.84;;;0.48;100.00
60307;BME280;46155;52.364;6.580;2023-01-26T08:54:56;102273.38;;;0.48;100.00
60307;BME280;46155;52.364;6.580;2023-01-26T08:57:21;102266.50;;;0.42;100.00
60307;BME280;46155;52.364;6.580;2023-01-26T08:59:46;102270.94;;;0.43;100.00
60307;BME280;46155;52.364;6.580;2023-01-26T09:02:12;102264.28;;;0.38;100.00
60307;BME280;46155;52.364;6.580;2023-01-26T09:04:37;102272.44;;;0.48;100.00
60307;BME280;46155;52.364;6.580;2023-01-26T09:07:02;102280.19;;;0.48;100.00
60307;BME280;46155;52.364;6.580;2023-01-26T09:09:28;102280.97;;;0.54;100.00
60307;BME280;46155;52.364;6.580;2023-01-26T09:11:56;102272.06;;;0.52;100.00
60307;BME280;46155;52.364;6.580;2023-01-26T09:14:22;102277.63;;;0.55;100.00
60307;BME280;46155;52.364;6.580;2023-01-26T09:16:48;102264.69;;;0.55;100.00
60307;BME280;46155;52.364;6.580;2023-01-26T09:19:14;102285.81;;;0.65;100.00
60307;BME280;46155;52.364;6.580;2023-01-26T09:21:39;102279.88;;;0.66;100.00
60307;BME280;46155;52.364;6.580;2023-01-26T09:24:05;102281.00;;;0.61;100.00
60307;BME280;46155;52.364;6.580;2023-01-26T09:26:30;102274.34;;;0.63;100.00
60307;BME280;46155;52.364;6.580;2023-01-26T09:28:56;102264.38;;;0.66;100.00
60307;BME280;46155;52.364;6.580;2023-01-26T09:31:22;102271.06;;;0.79;100.00
60307;BME280;46155;52.364;6.580;2023-01-26T09:33:48;102269.78;;;0.75;100.00
60307;BME280;46155;52.364;6.580;2023-01-26T09:36:14;102274.78;;;0.81;100.00
60307;BME280;46155;52.364;6.580;2023-01-26T09:38:40;102283.63;;;0.83;100.00
60307;BME280;46155;52.364;6.580;2023-01-26T09:43:41;102282.31;;;0.79;100.00
60307;BME280;46155;52.364;6.580;2023-01-26T09:46:24;102279.91;;;0.74;100.00
60307;BME280;46155;52.364;6.580;2023-01-26T09:48:58;102275.16;;;0.84;100.00
60307;BME280;46155;52.364;6.580;2023-01-26T09:51:35;102279.22;;;0.89;100.00
60307;BME280;46155;52.364;6.580;2023-01-26T09:54:11;102283.63;;;0.83;100.00
60307;BME280;46155;52.364;6.580;2023-01-26T09:56:41;102282.88;;;0.77;100.00
60307;BME280;46155;52.364;6.580;2023-01-26T10:01:52;102284.88;;;0.72;100.00
60307;BME280;46155;52.364;6.580;2023-01-26T10:04:30;102290.84;;;0.78;100.00
60307;BME280;46155;52.364;6.580;2023-01-26T10:07:08;102283.81;;;0.77;100.00
60307;BME280;46155;52.364;6.580;2023-01-26T10:09:35;102293.25;;;0.84;100.00
60307;BME280;46155;52.364;6.580;2023-01-26T10:12:23;102290.31;;;0.88;100.00
60307;BME280;46155;52.364;6.580;2023-01-26T10:15:02;102289.56;;;0.96;100.00
60307;BME280;46155;52.364;6.580;2023-01-26T10:17:40;102291.41;;;0.97;100.00
60307;BME280;46155;52.364;6.580;2023-01-26T10:20:31;102292.22;;;1.11;100.00
60307;BME280;46155;52.364;6.580;2023-01-26T10:23:05;102289.81;;;1.12;100.00
60307;BME280;46155;52.364;6.580;2023-01-26T10:25:35;102297.38;;;1.18;100.00
60307;BME280;46155;52.364;6.580;2023-01-26T10:28:10;102299.25;;;1.26;100.00
60307;BME280;46155;52.364;6.580;2023-01-26T10:30:38;102291.84;;;1.22;100.00
60307;BME280;46155;52.364;6.580;2023-01-26T10:33:11;102300.88;;;1.18;100.00
60307;BME280;46155;52.364;6.580;2023-01-26T10:35:38;102298.31;;;1.18;100.00
60307;BME280;46155;52.364;6.580;2023-01-26T10:40:59;102292.59;;;1.43;100.00
60307;BME280;46155;52.364;6.580;2023-01-26T10:43:25;102295.91;;;1.42;100.00
60307;BME280;46155;52.364;6.580;2023-01-26T10:45:50;102294.09;;;1.41;100.00
60307;BME280;46155;52.364;6.580;2023-01-26T10:48:19;102298.50;;;1.49;100.00
60307;BME280;46155;52.364;6.580;2023-01-26T10:50:46;102291.69;;;1.57;100.00
60307;BME280;46155;52.364;6.580;2023-01-26T10:53:24;102283.72;;;1.77;100.00
60307;BME280;46155;52.364;6.580;2023-01-26T10:56:10;102292.19;;;1.83;100.00
60307;BME280;46155;52.364;6.580;2023-01-26T10:58:51;102287.03;;;1.97;100.00
60307;BME280;46155;52.364;6.580;2023-01-26T11:01:18;102279.97;;;2.03;100.00
60307;BME280;46155;52.364;6.580;2023-01-26T11:04:05;102287.91;;;2.12;100.00
60307;BME280;46155;52.364;6.580;2023-01-26T11:06:31;102278.81;;;2.23;100.00
60307;BME280;46155;52.364;6.580;2023-01-26T11:09:16;102286.88;;;2.40;100.00
60307;BME280;46155;52.364;6.580;2023-01-26T11:11:55;102274.88;;;2.41;100.00
60307;BME280;46155;52.364;6.580;2023-01-26T11:14:21;102282.44;;;2.47;100.00
60307;BME280;46155;52.364;6.580;2023-01-26T11:36:09;102256.06;;;3.19;100.00
60307;BME280;46155;52.364;6.580;2023-01-26T11:38:42;102252.78;;;3.36;100.00
60307;BME280;46155;52.364;6.580;2023-01-26T11:55:15;102238.75;;;4.21;100.00
60307;BME280;46155;52.364;6.580;2023-01-26T12:00:29;102240.72;;;4.71;100.00
60307;BME280;46155;52.364;6.580;2023-01-26T12:03:03;102246.88;;;4.56;100.00
60307;BME280;46155;52.364;6.580;2023-01-26T12:05:39;102242.31;;;4.62;100.00
60307;BME280;46155;52.364;6.580;2023-01-26T12:08:14;102242.22;;;4.69;100.00
60307;BME280;46155;52.364;6.580;2023-01-26T12:10:48;102234.50;;;4.78;100.00
60307;BME280;46155;52.364;6.580;2023-01-26T12:13:34;102232.16;;;4.97;100.00
60307;BME280;46155;52.364;6.580;2023-01-26T12:16:17;102224.09;;;5.03;100.00
60307;BME280;46155;52.364;6.580;2023-01-26T12:18:56;102220.03;;;5.13;100.00
60307;BME280;46155;52.364;6.580;2023-01-26T12:21:27;102215.97;;;5.33;100.00
60307;BME280;46155;52.364;6.580;2023-01-26T12:24:00;102216.75;;;5.32;100.00
60307;BME280;46155;52.364;6.580;2023-01-26T12:26:31;102207.56;;;5.35;100.00
60307;BME280;46155;52.364;6.580;2023-01-26T12:29:25;102203.78;;;5.49;100.00
60307;BME280;46155;52.364;6.580;2023-01-26T12:32:10;102200.13;;;5.56;100.00
60307;BME280;46155;52.364;6.580;2023-01-26T12:34:36;102197.84;;;5.68;100.00
60307;BME280;46155;52.364;6.580;2023-01-26T12:37:20;102188.09;;;5.74;100.00
60307;BME280;46155;52.364;6.580;2023-01-26T12:44:59;102176.88;;;5.75;100.00
60307;BME280;46155;52.364;6.580;2023-01-26T12:50:09;102169.06;;;5.75;100.00
60307;BME280;46155;52.364;6.580;2023-01-26T12:52:59;102170.16;;;5.77;100.00
60307;BME280;46155;52.364;6.580;2023-01-26T12:55:31;102173.34;;;5.75;100.00
60307;BME280;46155;52.364;6.580;2023-01-26T12:58:08;102168.16;;;5.83;100.00
60307;BME280;46155;52.364;6.580;2023-01-26T13:00:37;102165.09;;;5.96;100.00
60307;BME280;46155;52.364;6.580;2023-01-26T13:03:16;102160.25;;;6.08;100.00
60307;BME280;46155;52.364;6.580;2023-01-26T13:11:04;102155.19;;;6.18;100.00
60307;BME280;46155;52.364;6.580;2023-01-26T13:13:56;102161.63;;;6.22;100.00
60307;BME280;46155;52.364;6.580;2023-01-26T13:18:51;102164.53;;;6.34;100.00
60307;BME280;46155;52.364;6.580;2023-01-26T13:26:53;102151.66;;;6.09;100.00
60307;BME280;46155;52.364;6.580;2023-01-26T13:31:44;102154.41;;;6.02;100.00
60307;BME280;46155;52.364;6.580;2023-01-26T13:34:09;102159.91;;;6.05;100.00
60307;BME280;46155;52.364;6.580;2023-01-26T13:36:41;102152.56;;;6.01;100.00
60307;BME280;46155;52.364;6.580;2023-01-26T13:39:36;102153.50;;;6.10;100.00
60307;BME280;46155;52.364;6.580;2023-01-26T13:42:14;102152.59;;;6.18;100.00
60307;BME280;46155;52.364;6.580;2023-01-26T13:44:43;102147.66;;;6.22;100.00
60307;BME280;46155;52.364;6.580;2023-01-26T13:47:16;102148.09;;;6.35;100.00
60307;BME280;46155;52.364;6.580;2023-01-26T13:49:44;102146.44;;;6.35;100.00
60307;BME280;46155;52.364;6.580;2023-01-26T13:52:24;102147.34;;;6.36;100.00
60307;BME280;46155;52.364;6.580;2023-01-26T13:54:52;102143.22;;;6.38;100.00
60307;BME280;46155;52.364;6.580;2023-01-26T13:57:27;102146.75;;;6.30;100.00
60307;BME280;46155;52.364;6.580;2023-01-26T13:59:59;102152.25;;;6.33;100.00
60307;BME280;46155;52.364;6.580;2023-01-26T14:02:26;102144.91;;;6.29;100.00
60307;BME280;46155;52.364;6.580;2023-01-26T14:04:53;102148.59;;;6.31;100.00
60307;BME280;46155;52.364;6.580;2023-01-26T14:07:23;102143.69;;;6.25;100.00
60307;BME280;46155;52.364;6.580;2023-01-26T14:09:51;102151.66;;;6.27;100.00
60307;BME280;46155;52.364;6.580;2023-01-26T14:12:22;102148.72;;;6.24;100.00
60307;BME280;46155;52.364;6.580;2023-01-26T14:14:51;102140.59;;;6.20;100.00
60307;BME280;46155;52.364;6.580;2023-01-26T14:17:25;102145.97;;;6.22;100.00
60307;BME280;46155;52.364;6.580;2023-01-26T14:19:51;102147.66;;;6.22;100.00
60307;BME280;46155;52.364;6.580;2023-01-26T14:22:16;102147.81;;;6.14;100.00
60307;BME280;46155;52.364;6.580;2023-01-26T14:24:47;102145.97;;;6.13;100.00
60307;BME280;46155;52.364;6.580;2023-01-26T14:30:00;102162.06;;;6.00;100.00
60307;BME280;46155;52.364;6.580;2023-01-26T14:32:26;102152.56;;;6.01;100.00
60307;BME280;46155;52.364;6.580;2023-01-26T14:34:58;102150.13;;;6.11;100.00
60307;BME280;46155;52.364;6.580;2023-01-26T14:37:25;102156.72;;;5.99;100.00
60307;BME280;46155;52.364;6.580;2023-01-26T14:40:23;102159.63;;;6.02;100.00
60307;BME280;46155;52.364;6.580;2023-01-26T14:42:50;102151.78;;;6.02;100.00
60307;BME280;46155;52.364;6.580;2023-01-26T14:45:17;102157.78;;;6.01;100.00
60307;BME280;46155;52.364;6.580;2023-01-26T14:47:48;102166.38;;;6.00;100.00
60307;BME280;46155;52.364;6.580;2023-01-26T14:50:27;102158.69;;;5.93;100.00
60307;BME280;46155;52.364;6.580;2023-01-26T14:52:56;102164.19;;;5.96;100.00
60307;BME280;46155;52.364;6.580;2023-01-26T14:55:31;102169.00;;;6.00;100.00
60307;BME280;46155;52.364;6.580;2023-01-26T14:58:00;102159.31;;;5.99;100.00
60307;BME280;46155;52.364;6.580;2023-01-26T15:00:26;102167.13;;;5.99;100.00
60307;BME280;46155;52.364;6.580;2023-01-26T15:02:54;102163.63;;;6.07;100.00
60307;BME280;46155;52.364;6.580;2023-01-26T15:05:23;102170.06;;;6.02;100.00
60307;BME280;46155;52.364;6.580;2023-01-26T15:08:16;102164.84;;;6.02;100.00
60307;BME280;46155;52.364;6.580;2023-01-26T15:10:51;102157.00;;;6.11;100.00
60307;BME280;46155;52.364;6.580;2023-01-26T15:13:20;102163.94;;;6.10;100.00
60307;BME280;46155;52.364;6.580;2023-01-26T15:16:00;102163.78;;;6.00;100.00
60307;BME280;46155;52.364;6.580;2023-01-26T15:18:33;102169.28;;;6.03;100.00
60307;BME280;46155;52.364;6.580;2023-01-26T15:23:31;102173.97;;;5.90;100.00
60307;BME280;46155;52.364;6.580;2023-01-26T15:26:07;102163.41;;;5.88;100.00
60307;BME280;46155;52.364;6.580;2023-01-26T15:28:33;102168.31;;;5.94;100.00
60307;BME280;46155;52.364;6.580;2023-01-26T15:30:59;102170.00;;;5.84;100.00
60307;BME280;46155;52.364;6.580;2023-01-26T15:33:50;102167.25;;;5.92;100.00
60307;BME280;46155;52.364;6.580;2023-01-26T15:36:26;102172.75;;;5.86;100.00
60307;BME280;46155;52.364;6.580;2023-01-26T15:39:09;102166.16;;;5.81;100.00
60307;BME280;46155;52.364;6.580;2023-01-26T15:41:35;102161.72;;;5.80;100.00
60307;BME280;46155;52.364;6.580;2023-01-26T15:44:01;102167.25;;;5.74;100.00
60307;BME280;46155;52.364;6.580;2023-01-26T15:46:26;102173.50;;;5.76;100.00
60307;BME280;46155;52.364;6.580;2023-01-26T15:48:52;102178.28;;;5.80;100.00
60307;BME280;46155;52.364;6.580;2023-01-26T15:51:17;102169.19;;;5.68;100.00
60307;BME280;46155;52.364;6.580;2023-01-26T15:53:42;102172.25;;;5.73;100.00
60307;BME280;46155;52.364;6.580;2023-01-26T15:56:11;102176.13;;;5.76;100.00
60307;BME280;46155;52.364;6.580;2023-01-26T15:58:37;102178.88;;;5.78;100.00
60307;BME280;46155;52.364;6.580;2023-01-26T16:01:03;102179.78;;;5.78;100.00
60307;BME280;46155;52.364;6.580;2023-01-26T16:03:28;102175.22;;;5.76;100.00
60307;BME280;46155;52.364;6.580;2023-01-26T16:05:54;102183.31;;;5.70;100.00
60307;BME280;46155;52.364;6.580;2023-01-26T16:08:19;102174.25;;;5.66;100.00
60307;BME280;46155;52.364;6.580;2023-01-26T16:10:45;102175.97;;;5.75;100.00
60307;BME280;46155;52.364;6.580;2023-01-26T16:13:13;102178.72;;;5.76;100.00
60307;BME280;46155;52.364;6.580;2023-01-26T16:15:52;102177.66;;;5.74;100.00
60307;BME280;46155;52.364;6.580;2023-01-26T16:18:18;102179.31;;;5.65;100.00
60307;BME280;46155;52.364;6.580;2023-01-26T16:20:45;102174.09;;;5.65;100.00
60307;BME280;46155;52.364;6.580;2023-01-26T16:23:29;102183.78;;;5.75;100.00
60307;BME280;46155;52.364;6.580;2023-01-26T16:25:56;102184.09;;;5.86;100.00
60307;BME280;46155;52.364;6.580;2023-01-26T16:28:21;102196.38;;;5.96;100.00
60307;BME280;46155;52.364;6.580;2023-01-26T16:30:48;102201.28;;;5.93;100.00
60307;BME280;46155;52.364;6.580;2023-01-26T16:33:16;102197.63;;;5.91;100.00
60307;BME280;46155;52.364;6.580;2023-01-26T16:35:44;102193.44;;;5.76;100.00
60307;BME280;46155;52.364;6.580;2023-01-26T16:38:09;102196.50;;;5.80;100.00
60307;BME280;46155;52.364;6.580;2023-01-26T16:40:38;102194.19;;;5.66;100.00
60307;BME280;46155;52.364;6.580;2023-01-26T16:43:13;102198.16;;;5.71;100.00
60307;BME280;46155;52.364;6.580;2023-01-26T16:45:41;102198.16;;;5.71;100.00
60307;BME280;46155;52.364;6.580;2023-01-26T16:48:11;102198.00;;;5.61;100.00
60307;BME280;46155;52.364;6.580;2023-01-26T16:50:38;102200.16;;;5.65;100.00
60307;BME280;46155;52.364;6.580;2023-01-26T16:53:15;102199.69;;;5.60;100.00
60307;BME280;46155;52.364;6.580;2023-01-26T16:55:41;102205.78;;;5.52;100.00
60307;BME280;46155;52.364;6.580;2023-01-26T16:58:06;102201.63;;;5.54;100.00
60307;BME280;46155;52.364;6.580;2023-01-26T17:00:32;102193.66;;;5.52;100.00
60307;BME280;46155;52.364;6.580;2023-01-26T17:02:57;102190.91;;;5.51;100.00
60307;BME280;46155;52.364;6.580;2023-01-26T17:05:23;102197.50;;;5.47;100.00
60307;BME280;46155;52.364;6.580;2023-01-26T17:07:48;102198.88;;;5.52;100.00
60307;BME280;46155;52.364;6.580;2023-01-26T17:10:16;102191.88;;;5.69;100.00
60307;BME280;46155;52.364;6.580;2023-01-26T17:12:42;102193.75;;;5.70;100.00
60307;BME280;46155;52.364;6.580;2023-01-26T17:15:09;102199.41;;;5.66;100.00
60307;BME280;46155;52.364;6.580;2023-01-26T17:17:35;102196.63;;;5.64;100.00
60307;BME280;46155;52.364;6.580;2023-01-26T17:20:02;102202.13;;;5.59;100.00
60307;BME280;46155;52.364;6.580;2023-01-26T17:22:28;102203.34;;;5.54;100.00
60307;BME280;46155;52.364;6.580;2023-01-26T17:24:54;102203.94;;;5.51;100.00
60307;BME280;46155;52.364;6.580;2023-01-26T17:27:20;102200.56;;;5.52;100.00
60307;BME280;46155;52.364;6.580;2023-01-26T17:29:46;102199.03;;;5.54;100.00
60307;BME280;46155;52.364;6.580;2023-01-26T17:32:13;102212.84;;;5.53;100.00
60307;BME280;46155;52.364;6.580;2023-01-26T17:34:39;102209.75;;;5.48;100.00
60307;BME280;46155;52.364;6.580;2023-01-26T17:37:05;102207.41;;;5.43;100.00
60307;BME280;46155;52.364;6.580;2023-01-26T17:39:30;102202.06;;;5.41;100.00
60307;BME280;46155;52.364;6.580;2023-01-26T17:41:55;102201.00;;;5.39;100.00
60307;BME280;46155;52.364;6.580;2023-01-26T17:44:21;102197.44;;;5.39;100.00
60307;BME280;46155;52.364;6.580;2023-01-26T17:46:46;102198.06;;;5.36;100.00
60307;BME280;46155;52.364;6.580;2023-01-26T17:49:12;102199.88;;;5.37;100.00
60307;BME280;46155;52.364;6.580;2023-01-26T17:51:37;102197.13;;;5.35;100.00
60307;BME280;46155;52.364;6.580;2023-01-26T17:54:02;102203.44;;;5.38;100.00
60307;BME280;46155;52.364;6.580;2023-01-26T17:56:28;102196.81;;;5.32;100.00
60307;BME280;46155;52.364;6.580;2023-01-26T17:58:55;102202.94;;;5.33;100.00
60307;BME280;46155;52.364;6.580;2023-01-26T18:01:22;102203.44;;;5.38;100.00
60307;BME280;46155;52.364;6.580;2023-01-26T18:03:48;102208.81;;;5.39;100.00
60307;BME280;46155;52.364;6.580;2023-01-26T18:06:13;102205.09;;;5.37;100.00
60307;BME280;46155;52.364;6.580;2023-01-26T18:08:39;102211.28;;;5.46;100.00
60307;BME280;46155;52.364;6.580;2023-01-26T18:11:07;102213.13;;;5.47;100.00